createdAt,value
2018-12-08T00:01:02.808Z,938.40
2018-12-08T00:02:10.759Z,938.44
2018-12-08T00:03:18.837Z,938.51
2018-12-08T00:04:26.905Z,938.57
2018-12-08T00:05:34.957Z,938.55
2018-12-08T00:06:43.106Z,938.51
2018-12-08T00:07:51.083Z,938.61
2018-12-08T00:08:59.126Z,938.56
2018-12-08T00:10:07.194Z,938.57
2018-12-08T00:11:15.241Z,938.63
2018-12-08T00:12:23.403Z,938.56
2018-12-08T00:13:31.333Z,938.65
2018-12-08T00:14:39.460Z,938.63
2018-12-08T00:15:47.488Z,938.70
2018-12-08T00:16:55.526Z,938.61
2018-12-08T00:18:03.636Z,938.62
2018-12-08T00:19:11.884Z,938.74
2018-12-08T00:20:19.730Z,938.73
2018-12-08T00:21:27.774Z,938.73
2018-12-08T00:22:35.825Z,938.80
2018-12-08T00:23:43.985Z,938.88
2018-12-08T00:24:51.950Z,938.81
2018-12-08T00:26:00.028Z,938.86
2018-12-08T00:27:08.059Z,938.83
2018-12-08T00:28:16.116Z,938.82
2018-12-08T00:29:24.271Z,938.81
2018-12-08T00:30:32.231Z,938.84
2018-12-08T00:31:40.292Z,938.87
2018-12-08T00:32:48.363Z,938.93
2018-12-08T00:33:56.420Z,939.01
2018-12-08T00:35:04.576Z,939.04
2018-12-08T00:36:12.539Z,939.04
2018-12-08T00:37:20.575Z,939.06
2018-12-08T00:38:28.635Z,938.98
2018-12-08T00:39:36.701Z,938.99
2018-12-08T00:40:44.843Z,939.03
2018-12-08T00:41:52.908Z,939.04
2018-12-08T00:43:00.859Z,939.06
2018-12-08T00:44:08.930Z,939.07
2018-12-08T00:45:16.987Z,939.14
2018-12-08T00:46:25.247Z,939.11
2018-12-08T00:47:33.109Z,939.12
2018-12-08T00:48:41.125Z,939.06
2018-12-08T00:49:49.316Z,939.09
2018-12-08T00:50:57.323Z,939.21
2018-12-08T00:52:05.437Z,939.15
2018-12-08T00:53:13.420Z,939.13
2018-12-08T00:54:21.420Z,939.08
2018-12-08T00:55:29.515Z,939.04
2018-12-08T00:56:37.564Z,939.09
2018-12-08T00:57:45.727Z,939.05
2018-12-08T00:58:53.690Z,939.10
2018-12-08T01:00:01.842Z,939.19
2018-12-08T01:01:09.807Z,939.23
2018-12-08T01:02:17.858Z,939.28
2018-12-08T01:03:26.017Z,939.31
2018-12-08T01:04:33.990Z,939.34
2018-12-08T01:05:42.024Z,939.31
2018-12-08T01:06:50.090Z,939.40
2018-12-08T01:07:58.139Z,939.44
2018-12-08T01:09:06.294Z,939.38
2018-12-08T01:10:14.282Z,939.31
2018-12-08T01:11:22.360Z,939.36
2018-12-08T01:12:30.383Z,939.39
2018-12-08T01:13:38.444Z,939.31
2018-12-08T01:14:46.612Z,939.30
2018-12-08T01:15:54.607Z,939.29
2018-12-08T01:17:02.620Z,939.26
2018-12-08T01:18:10.672Z,939.22
2018-12-08T01:19:18.737Z,939.20
2018-12-08T01:20:26.888Z,939.25
2018-12-08T01:21:34.862Z,939.24
2018-12-08T01:22:42.914Z,939.22
2018-12-08T01:23:50.963Z,939.29
2018-12-08T01:24:59.028Z,939.30
2018-12-08T01:26:07.327Z,939.32
2018-12-08T01:27:15.154Z,939.31
2018-12-08T01:28:23.210Z,939.30
2018-12-08T01:29:31.239Z,939.33
2018-12-08T01:30:39.328Z,939.38
2018-12-08T01:31:47.468Z,939.38
2018-12-08T01:32:55.437Z,939.45
2018-12-08T01:34:03.602Z,939.49
2018-12-08T01:35:11.534Z,939.47
2018-12-08T01:36:19.710Z,939.43
2018-12-08T01:37:28.122Z,939.49
2018-12-08T01:38:35.733Z,939.48
2018-12-08T01:39:43.807Z,939.47
2018-12-08T01:40:51.929Z,939.49
2018-12-08T01:41:59.906Z,939.49
2018-12-08T01:43:08.065Z,939.56
2018-12-08T01:44:16.030Z,939.58
2018-12-08T01:45:24.073Z,939.63
2018-12-08T01:46:32.133Z,939.62
2018-12-08T01:47:40.207Z,939.65
2018-12-08T01:48:48.390Z,939.64
2018-12-08T01:49:56.321Z,939.65
2018-12-08T01:51:04.377Z,939.71
2018-12-08T01:52:12.433Z,939.69
2018-12-08T01:53:20.484Z,939.67
2018-12-08T01:54:28.698Z,939.65
2018-12-08T01:55:36.610Z,939.59
2018-12-08T01:56:44.729Z,939.58
2018-12-08T01:57:52.726Z,939.57
2018-12-08T01:59:00.774Z,939.59
2018-12-08T02:00:09.025Z,939.59
2018-12-08T02:01:16.990Z,939.63
2018-12-08T02:02:24.970Z,939.66
2018-12-08T02:03:33.023Z,939.69
2018-12-08T02:04:41.038Z,939.68
2018-12-08T02:05:49.225Z,939.72
2018-12-08T02:06:57.194Z,939.73
2018-12-08T02:08:05.249Z,939.70
2018-12-08T02:09:14.501Z,939.65
2018-12-08T02:10:21.340Z,939.66
2018-12-08T02:11:29.517Z,939.67
2018-12-08T02:12:37.485Z,939.63
2018-12-08T02:13:45.527Z,939.59
2018-12-08T02:14:53.602Z,939.55
2018-12-08T02:16:01.643Z,939.50
2018-12-08T02:17:09.812Z,939.44
2018-12-08T02:18:17.765Z,939.46
2018-12-08T02:19:25.826Z,939.44
2018-12-08T02:20:33.885Z,939.38
2018-12-08T02:21:42.035Z,939.33
2018-12-08T02:22:50.240Z,939.36
2018-12-08T02:23:58.046Z,939.34
2018-12-08T02:25:06.114Z,939.35
2018-12-08T02:26:14.179Z,939.37
2018-12-08T02:27:22.233Z,939.36
2018-12-08T02:28:30.407Z,939.29
2018-12-08T02:29:38.352Z,939.30
2018-12-08T02:30:46.411Z,939.23
2018-12-08T02:31:54.483Z,939.16
2018-12-08T02:33:02.531Z,939.19
2018-12-08T02:34:11.006Z,939.20
2018-12-08T02:35:18.639Z,939.25
2018-12-08T02:36:26.717Z,939.35
2018-12-08T02:37:34.864Z,939.39
2018-12-08T02:38:42.803Z,939.39
2018-12-08T02:39:50.953Z,939.37
2018-12-08T02:40:58.932Z,939.35
2018-12-08T02:42:07.085Z,939.37
2018-12-08T02:43:15.049Z,939.28
2018-12-08T02:44:23.122Z,939.33
2018-12-08T02:45:31.228Z,939.36
2018-12-08T02:46:39.592Z,939.39
2018-12-08T02:47:47.293Z,939.40
2018-12-08T02:48:55.347Z,939.37
2018-12-08T02:50:03.403Z,939.42
2018-12-08T02:51:11.522Z,939.36
2018-12-08T02:52:19.517Z,939.37
2018-12-08T02:53:27.569Z,939.37
2018-12-08T02:54:35.647Z,939.42
2018-12-08T02:55:43.700Z,939.43
2018-12-08T02:56:52.181Z,939.40
2018-12-08T02:57:59.891Z,939.41
2018-12-08T02:59:07.852Z,939.41
2018-12-08T03:00:15.946Z,939.37
2018-12-08T03:01:23.999Z,939.39
2018-12-08T03:02:32.487Z,939.42
2018-12-08T03:03:40.093Z,939.38
2018-12-08T03:04:48.148Z,939.40
2018-12-08T03:05:56.208Z,939.46
2018-12-08T03:07:04.272Z,939.49
2018-12-08T03:08:12.419Z,939.49
2018-12-08T03:09:20.377Z,939.51
2018-12-08T03:10:28.432Z,939.52
2018-12-08T03:11:36.489Z,939.46
2018-12-08T03:12:44.553Z,939.59
2018-12-08T03:13:52.711Z,939.58
2018-12-08T03:15:00.663Z,939.51
2018-12-08T03:16:08.729Z,939.54
2018-12-08T03:17:16.774Z,939.55
2018-12-08T03:18:24.928Z,939.57
2018-12-08T03:19:32.993Z,939.54
2018-12-08T03:20:40.950Z,939.52
2018-12-08T03:21:48.997Z,939.56
2018-12-08T03:22:57.069Z,939.56
2018-12-08T03:24:05.121Z,939.52
2018-12-08T03:25:13.415Z,939.55
2018-12-08T03:26:21.356Z,939.53
2018-12-08T03:27:29.300Z,939.52
2018-12-08T03:28:37.351Z,939.50
2018-12-08T03:29:45.418Z,939.47
2018-12-08T03:30:53.587Z,939.44
2018-12-08T03:32:01.508Z,939.49
2018-12-08T03:33:09.594Z,939.53
2018-12-08T03:34:17.780Z,939.51
2018-12-08T03:35:25.694Z,939.55
2018-12-08T03:36:33.844Z,939.52
2018-12-08T03:37:41.814Z,939.52
2018-12-08T03:38:49.969Z,939.54
2018-12-08T03:39:57.929Z,939.52
2018-12-08T03:41:05.989Z,939.49
2018-12-08T03:42:14.156Z,939.53
2018-12-08T03:43:22.194Z,939.55
2018-12-08T03:44:30.162Z,939.49
2018-12-08T03:45:38.221Z,939.48
2018-12-08T03:46:46.271Z,939.55
2018-12-08T03:47:54.475Z,939.59
2018-12-08T03:49:02.390Z,939.56
2018-12-08T03:50:10.430Z,939.53
2018-12-08T03:51:18.493Z,939.55
2018-12-08T03:52:26.549Z,939.62
2018-12-08T03:53:34.729Z,939.63
2018-12-08T03:54:42.688Z,939.62
2018-12-08T03:55:50.745Z,939.63
2018-12-08T03:56:58.787Z,939.58
2018-12-08T03:58:06.849Z,939.58
2018-12-08T03:59:15.008Z,939.56
2018-12-08T04:00:22.968Z,939.59
2018-12-08T04:01:30.992Z,939.59
2018-12-08T04:02:39.056Z,939.64
2018-12-08T04:03:47.224Z,939.64
2018-12-08T04:04:55.298Z,939.60
2018-12-08T04:06:03.248Z,939.67
2018-12-08T04:07:11.289Z,939.66
2018-12-08T04:08:19.368Z,939.62
2018-12-08T04:09:27.416Z,939.65
2018-12-08T04:10:35.591Z,939.62
2018-12-08T04:11:43.605Z,939.64
2018-12-08T04:12:51.569Z,939.64
2018-12-08T04:13:59.648Z,939.60
2018-12-08T04:15:07.709Z,939.66
2018-12-08T04:16:15.875Z,939.64
2018-12-08T04:17:23.824Z,939.66
2018-12-08T04:18:31.872Z,939.63
2018-12-08T04:19:40.045Z,939.64
2018-12-08T04:20:48.004Z,939.62
2018-12-08T04:21:56.278Z,939.56
2018-12-08T04:23:04.106Z,939.66
2018-12-08T04:24:12.259Z,939.64
2018-12-08T04:25:20.234Z,939.67
2018-12-08T04:26:28.306Z,939.66
2018-12-08T04:27:36.427Z,939.70
2018-12-08T04:28:44.400Z,939.59
2018-12-08T04:29:52.455Z,939.63
2018-12-08T04:31:00.524Z,939.58
2018-12-08T04:32:08.574Z,939.62
2018-12-08T04:33:16.747Z,939.58
2018-12-08T04:34:24.692Z,939.57
2018-12-08T04:35:32.751Z,939.51
2018-12-08T04:36:40.787Z,939.56
2018-12-08T04:37:48.847Z,939.60
2018-12-08T04:38:57.006Z,939.63
2018-12-08T04:40:05.040Z,939.61
2018-12-08T04:41:13.050Z,939.60
2018-12-08T04:42:21.159Z,939.58
2018-12-08T04:43:29.152Z,939.68
2018-12-08T04:44:37.380Z,939.65
2018-12-08T04:45:45.253Z,939.62
2018-12-08T04:46:53.315Z,939.53
2018-12-08T04:48:01.344Z,939.58
2018-12-08T04:49:09.422Z,939.56
2018-12-08T04:50:17.583Z,939.63
2018-12-08T04:51:25.559Z,939.56
2018-12-08T04:52:33.620Z,939.58
2018-12-08T04:53:41.639Z,939.56
2018-12-08T04:54:49.730Z,939.57
2018-12-08T04:55:57.888Z,939.59
2018-12-08T04:57:05.820Z,939.56
2018-12-08T04:58:13.902Z,939.49
2018-12-08T04:59:21.946Z,939.45
2018-12-08T05:00:30.126Z,939.42
2018-12-08T05:01:38.179Z,939.42
2018-12-08T05:02:46.140Z,939.51
2018-12-08T05:03:54.197Z,939.53
2018-12-08T05:05:02.250Z,939.51
2018-12-08T05:06:10.308Z,939.52
2018-12-08T05:07:18.457Z,939.49
2018-12-08T05:08:26.432Z,939.50
2018-12-08T05:09:34.490Z,939.46
2018-12-08T05:10:42.556Z,939.44
2018-12-08T05:11:50.591Z,939.53
2018-12-08T05:12:58.760Z,939.54
2018-12-08T05:14:06.723Z,939.55
2018-12-08T05:15:14.784Z,939.54
2018-12-08T05:16:22.830Z,939.55
2018-12-08T05:17:30.888Z,939.54
2018-12-08T05:18:39.175Z,939.63
2018-12-08T05:19:47.039Z,939.68
2018-12-08T05:20:55.072Z,939.67
2018-12-08T05:22:03.112Z,939.74
2018-12-08T05:23:11.166Z,939.73
2018-12-08T05:24:19.341Z,939.77
2018-12-08T05:25:27.384Z,939.86
2018-12-08T05:26:35.355Z,939.80
2018-12-08T05:27:43.412Z,939.78
2018-12-08T05:28:51.449Z,939.86
2018-12-08T05:29:59.629Z,939.85
2018-12-08T05:31:07.574Z,939.95
2018-12-08T05:32:15.642Z,939.96
2018-12-08T05:33:23.716Z,939.93
2018-12-08T05:34:31.735Z,939.90
2018-12-08T05:35:39.911Z,939.90
2018-12-08T05:36:47.874Z,939.91
2018-12-08T05:37:55.935Z,939.97
2018-12-08T05:39:04.010Z,939.89
2018-12-08T05:40:12.055Z,939.94
2018-12-08T05:41:20.219Z,939.98
2018-12-08T05:42:28.163Z,939.99
2018-12-08T05:43:36.229Z,940.03
2018-12-08T05:44:44.678Z,939.97
2018-12-08T05:45:52.344Z,939.96
2018-12-08T05:47:00.679Z,940.03
2018-12-08T05:48:08.464Z,940.03
2018-12-08T05:49:16.515Z,940.06
2018-12-08T05:50:24.617Z,940.06
2018-12-08T05:51:32.616Z,940.08
2018-12-08T05:52:40.763Z,940.06
2018-12-08T05:53:48.753Z,940.08
2018-12-08T05:54:56.809Z,940.08
2018-12-08T05:56:04.870Z,940.16
2018-12-08T05:57:13.068Z,940.12
2018-12-08T05:58:21.047Z,940.18
2018-12-08T05:59:29.066Z,940.17
2018-12-08T06:00:37.096Z,940.20
2018-12-08T06:01:45.151Z,940.21
2018-12-08T06:02:53.212Z,940.19
2018-12-08T06:04:01.344Z,940.25
2018-12-08T06:05:09.324Z,940.27
2018-12-08T06:06:17.388Z,940.29
2018-12-08T06:07:25.433Z,940.28
2018-12-08T06:08:33.486Z,940.25
2018-12-08T06:09:41.619Z,940.26
2018-12-08T06:10:49.638Z,940.26
2018-12-08T06:11:57.671Z,940.28
2018-12-08T06:13:05.732Z,940.21
2018-12-08T06:14:13.781Z,940.25
2018-12-08T06:15:22.241Z,940.25
2018-12-08T06:16:29.903Z,940.25
2018-12-08T06:17:37.960Z,940.22
2018-12-08T06:18:46.006Z,940.30
2018-12-08T06:19:54.096Z,940.24
2018-12-08T06:21:02.231Z,940.23
2018-12-08T06:22:10.390Z,940.28
2018-12-08T06:23:18.254Z,940.30
2018-12-08T06:24:26.343Z,940.33
2018-12-08T06:25:34.370Z,940.35
2018-12-08T06:26:42.530Z,940.34
2018-12-08T06:27:50.486Z,940.38
2018-12-08T06:28:58.954Z,940.36
2018-12-08T06:30:07.014Z,940.36
2018-12-08T06:31:14.668Z,940.39
2018-12-08T06:32:22.819Z,940.35
2018-12-08T06:33:30.761Z,940.37
2018-12-08T06:34:38.836Z,940.34
2018-12-08T06:35:46.912Z,940.35
2018-12-08T06:36:55.380Z,940.32
2018-12-08T06:38:03.261Z,940.32
2018-12-08T06:39:11.272Z,940.33
2018-12-08T06:40:19.151Z,940.36
2018-12-08T06:41:27.177Z,940.34
2018-12-08T06:42:35.219Z,940.35
2018-12-08T06:43:43.493Z,940.37
2018-12-08T06:44:51.345Z,940.35
2018-12-08T06:45:59.429Z,940.37
2018-12-08T06:47:07.462Z,940.36
2018-12-08T06:48:15.516Z,940.40
2018-12-08T06:49:23.681Z,940.40
2018-12-08T06:50:31.625Z,940.54
2018-12-08T06:51:39.701Z,940.45
2018-12-08T06:52:47.820Z,940.45
2018-12-08T06:53:55.832Z,940.54
2018-12-08T06:55:03.966Z,940.42
2018-12-08T06:56:11.927Z,940.45
2018-12-08T06:57:20.000Z,940.57
2018-12-08T06:58:28.160Z,940.53
2018-12-08T06:59:36.114Z,940.58
2018-12-08T07:00:44.255Z,940.52
2018-12-08T07:01:52.312Z,940.48
2018-12-08T07:03:00.273Z,940.57
2018-12-08T07:04:08.340Z,940.51
2018-12-08T07:05:16.410Z,940.55
2018-12-08T07:06:24.556Z,940.53
2018-12-08T07:07:32.513Z,940.54
2018-12-08T07:08:40.563Z,940.55
2018-12-08T07:09:48.623Z,940.51
2018-12-08T07:10:56.691Z,940.54
2018-12-08T07:12:04.846Z,940.54
2018-12-08T07:13:12.802Z,940.50
2018-12-08T07:14:20.844Z,940.56
2018-12-08T07:15:28.926Z,940.54
2018-12-08T07:16:37.517Z,940.57
2018-12-08T07:17:45.117Z,940.57
2018-12-08T07:18:53.100Z,940.62
2018-12-08T07:20:01.127Z,940.66
2018-12-08T07:21:09.306Z,940.60
2018-12-08T07:22:17.379Z,940.61
2018-12-08T07:23:25.419Z,940.57
2018-12-08T07:24:33.389Z,940.55
2018-12-08T07:25:41.422Z,940.49
2018-12-08T07:26:49.503Z,940.57
2018-12-08T07:27:57.574Z,940.55
2018-12-08T07:29:05.702Z,940.52
2018-12-08T07:30:13.977Z,940.53
2018-12-08T07:31:21.715Z,940.42
2018-12-08T07:32:29.804Z,940.56
2018-12-08T07:33:37.848Z,940.60
2018-12-08T07:34:46.009Z,940.61
2018-12-08T07:35:54.002Z,940.57
2018-12-08T07:37:02.406Z,940.54
2018-12-08T07:38:10.089Z,940.54
2018-12-08T07:39:18.138Z,940.53
2018-12-08T07:40:26.282Z,940.48
2018-12-08T07:41:34.251Z,940.50
2018-12-08T07:42:42.419Z,940.50
2018-12-08T07:43:50.380Z,940.51
2018-12-08T07:44:58.510Z,940.60
2018-12-08T07:46:06.576Z,940.61
2018-12-08T07:47:14.646Z,940.45
2018-12-08T07:48:22.624Z,940.48
2018-12-08T07:49:30.654Z,940.50
2018-12-08T07:50:38.740Z,940.49
2018-12-08T07:51:46.876Z,940.48
2018-12-08T07:52:55.351Z,940.45
2018-12-08T07:54:02.895Z,940.42
2018-12-08T07:55:10.951Z,940.41
2018-12-08T07:56:19.434Z,940.50
2018-12-08T07:57:27.176Z,940.46
2018-12-08T07:58:35.558Z,940.43
2018-12-08T07:59:43.191Z,940.43
2018-12-08T08:00:51.247Z,940.36
2018-12-08T08:01:59.740Z,940.36
2018-12-08T08:03:07.839Z,940.35
2018-12-08T08:04:15.427Z,940.35
2018-12-08T08:05:23.486Z,940.31
2018-12-08T08:06:31.550Z,940.29
2018-12-08T08:07:39.700Z,940.29
2018-12-08T08:08:47.850Z,940.23
2018-12-08T08:09:55.739Z,940.28
2018-12-08T08:11:03.793Z,940.22
2018-12-08T08:12:11.848Z,940.28
2018-12-08T08:13:19.910Z,940.32
2018-12-08T08:14:28.048Z,940.30
2018-12-08T08:15:36.315Z,940.31
2018-12-08T08:16:44.306Z,940.37
2018-12-08T08:17:52.339Z,940.35
2018-12-08T08:21:28.713Z,940.34
2018-12-08T08:22:36.794Z,940.34
2018-12-08T08:23:44.747Z,940.37
2018-12-08T08:26:27.346Z,940.34
2018-12-08T08:27:35.391Z,940.36
2018-12-08T08:28:43.895Z,940.38
2018-12-08T08:29:51.496Z,940.43
2018-12-08T08:31:00.470Z,940.41
2018-12-08T08:32:08.033Z,940.39
2018-12-08T08:33:16.092Z,940.36
2018-12-08T08:34:23.990Z,940.44
2018-12-08T08:35:32.231Z,940.42
2018-12-08T08:36:39.851Z,940.34
2018-12-08T08:37:48.050Z,940.38
2018-12-08T08:38:55.981Z,940.35
2018-12-08T08:40:04.116Z,940.29
2018-12-08T08:41:12.103Z,940.28
2018-12-08T08:42:20.160Z,940.34
2018-12-08T08:43:28.310Z,940.40
2018-12-08T08:44:36.732Z,940.42
2018-12-08T08:45:44.333Z,940.42
2018-12-08T08:46:52.402Z,940.44
2018-12-08T08:48:00.435Z,940.33
2018-12-08T08:49:09.066Z,940.36
2018-12-08T08:50:16.560Z,940.32
2018-12-08T08:51:24.912Z,940.30
2018-12-08T08:52:32.689Z,940.30
2018-12-08T08:53:40.754Z,940.27
2018-12-08T08:54:48.882Z,940.32
2018-12-08T08:55:57.084Z,940.37
2018-12-08T08:57:04.917Z,940.31
2018-12-08T08:58:13.042Z,940.26
2018-12-08T08:59:21.234Z,940.21
2018-12-08T09:00:29.370Z,940.24
2018-12-08T09:01:37.148Z,940.19
2018-12-08T09:02:45.694Z,940.16
2018-12-08T09:03:53.270Z,940.13
2018-12-08T09:05:01.342Z,940.09
2018-12-08T09:06:09.474Z,940.16
2018-12-08T09:07:17.455Z,940.19
2018-12-08T09:08:25.500Z,940.21
2018-12-08T09:09:33.660Z,940.23
2018-12-08T09:14:25.604Z,940.31
2018-12-08T09:15:33.660Z,940.30
2018-12-08T09:16:41.693Z,940.28
2018-12-08T09:17:49.755Z,940.29
2018-12-08T09:18:57.931Z,940.27
2018-12-08T09:20:05.894Z,940.24
2018-12-08T09:21:13.945Z,940.18
2018-12-08T09:22:22.006Z,940.18
2018-12-08T09:23:30.053Z,940.23
2018-12-08T09:24:38.216Z,940.18
2018-12-08T09:25:46.193Z,940.22
2018-12-08T09:26:54.289Z,940.22
2018-12-08T09:28:02.318Z,940.23
2018-12-08T09:29:10.371Z,940.24
2018-12-08T09:30:18.860Z,940.26
2018-12-08T09:31:26.475Z,940.23
2018-12-08T09:34:53.162Z,940.22
2018-12-08T09:35:58.802Z,940.19
2018-12-08T09:37:06.793Z,940.16
2018-12-08T09:38:14.826Z,940.22
2018-12-08T09:39:22.888Z,940.19
2018-12-08T09:40:30.931Z,940.13
2018-12-08T09:41:39.101Z,940.06
2018-12-08T09:42:47.053Z,940.22
2018-12-08T09:43:55.242Z,940.21
2018-12-08T09:45:03.173Z,940.23
2018-12-08T09:46:11.227Z,940.22
2018-12-08T09:47:19.399Z,940.23
2018-12-08T09:48:27.357Z,940.18
2018-12-08T09:49:35.489Z,940.09
2018-12-08T09:50:43.484Z,940.06
2018-12-08T09:51:51.528Z,940.06
2018-12-08T09:52:59.690Z,940.14
2018-12-08T09:54:07.656Z,940.18
2018-12-08T09:55:15.699Z,940.20
2018-12-08T09:56:23.895Z,940.11
2018-12-08T09:57:31.825Z,940.13
2018-12-08T09:58:40.066Z,939.98
2018-12-08T09:59:47.947Z,940.13
2018-12-08T10:00:55.991Z,940.04
2018-12-08T10:02:04.061Z,940.10
2018-12-08T10:03:12.273Z,940.06
2018-12-08T10:04:20.285Z,940.12
2018-12-08T10:05:28.394Z,940.05
2018-12-08T10:06:36.299Z,939.96
2018-12-08T10:07:44.366Z,939.99
2018-12-08T10:08:52.504Z,940.00
2018-12-08T10:10:01.139Z,940.03
2018-12-08T10:11:08.538Z,940.14
2018-12-08T10:12:16.630Z,940.08
2018-12-08T10:13:24.689Z,940.07
2018-12-08T10:14:32.731Z,940.08
2018-12-08T10:15:40.871Z,940.06
2018-12-08T10:16:48.835Z,940.13
2018-12-08T10:17:56.909Z,940.02
2018-12-08T10:19:04.938Z,940.12
2018-12-08T10:20:13.019Z,939.94
2018-12-08T10:21:21.171Z,940.01
2018-12-08T10:22:29.119Z,939.97
2018-12-08T10:23:37.317Z,940.00
2018-12-08T10:24:45.236Z,939.88
2018-12-08T10:25:53.345Z,939.87
2018-12-08T10:27:01.463Z,939.83
2018-12-08T10:28:09.466Z,939.88
2018-12-08T10:29:17.505Z,939.87
2018-12-08T10:30:25.527Z,939.95
2018-12-08T10:31:33.608Z,939.81
2018-12-08T10:32:42.109Z,939.71
2018-12-08T10:33:49.738Z,939.85
2018-12-08T10:34:57.843Z,939.84
2018-12-08T10:36:05.855Z,939.86
2018-12-08T10:37:14.000Z,939.75
2018-12-08T10:38:22.082Z,939.83
2018-12-08T10:39:30.035Z,939.84
2018-12-08T10:40:38.075Z,939.81
2018-12-08T10:41:46.147Z,939.78
2018-12-08T10:42:54.216Z,939.79
2018-12-08T10:44:02.363Z,939.80
2018-12-08T10:45:10.314Z,939.86
2018-12-08T10:46:18.391Z,939.85
2018-12-08T10:47:26.461Z,939.79
2018-12-08T10:48:34.517Z,939.79
2018-12-08T10:49:42.676Z,939.79
2018-12-08T10:50:50.923Z,939.79
2018-12-08T10:51:58.693Z,939.76
2018-12-08T10:53:06.850Z,939.76
2018-12-08T10:54:14.794Z,939.87
2018-12-08T10:55:22.959Z,939.79
2018-12-08T10:56:30.918Z,939.83
2018-12-08T10:57:38.977Z,939.91
2018-12-08T10:58:47.040Z,939.89
2018-12-08T10:59:55.070Z,939.74
2018-12-08T11:01:03.253Z,939.72
2018-12-08T11:02:11.219Z,939.81
2018-12-08T11:03:19.289Z,939.70
2018-12-08T11:04:27.482Z,939.69
2018-12-08T11:05:35.377Z,939.58
2018-12-08T11:06:43.542Z,939.56
2018-12-08T11:07:51.523Z,939.61
2018-12-08T11:08:59.683Z,939.63
2018-12-08T11:10:07.640Z,939.70
2018-12-08T11:11:16.621Z,939.68
2018-12-08T11:12:23.852Z,939.64
2018-12-08T11:13:31.811Z,939.66
2018-12-08T11:14:39.865Z,939.66
2018-12-08T11:15:47.917Z,939.73
2018-12-08T11:16:55.995Z,939.72
2018-12-08T11:18:04.146Z,939.63
2018-12-08T11:19:12.108Z,939.67
2018-12-08T11:20:20.171Z,939.62
2018-12-08T11:21:28.213Z,939.62
2018-12-08T11:22:36.283Z,939.55
2018-12-08T11:23:44.438Z,939.60
2018-12-08T11:24:52.514Z,939.54
2018-12-08T11:26:00.472Z,939.56
2018-12-08T11:27:08.526Z,939.58
2018-12-08T11:28:16.582Z,939.60
2018-12-08T11:29:24.718Z,939.60
2018-12-08T11:30:32.693Z,939.59
2018-12-08T11:31:40.750Z,939.58
2018-12-08T11:32:48.811Z,939.64
2018-12-08T11:33:56.885Z,939.63
2018-12-08T11:35:05.018Z,939.67
2018-12-08T11:36:12.989Z,939.60
2018-12-08T11:37:21.055Z,939.60
2018-12-08T11:38:29.115Z,939.63
2018-12-08T11:39:37.258Z,939.59
2018-12-08T11:40:45.293Z,939.53
2018-12-08T11:41:53.282Z,939.57
2018-12-08T11:43:01.353Z,939.54
2018-12-08T11:44:09.413Z,939.52
2018-12-08T11:45:17.553Z,939.50
2018-12-08T11:46:25.609Z,939.46
2018-12-08T11:47:33.590Z,939.43
2018-12-08T11:48:41.658Z,939.45
2018-12-08T11:49:49.691Z,939.39
2018-12-08T11:50:57.761Z,939.31
2018-12-08T11:52:05.920Z,939.30
2018-12-08T11:53:13.878Z,939.24
2018-12-08T11:54:21.932Z,939.27
2018-12-08T11:55:30.472Z,939.28
2018-12-08T11:56:38.157Z,939.32
2018-12-08T11:57:46.221Z,939.34
2018-12-08T11:58:54.177Z,939.31
2018-12-08T12:00:02.228Z,939.30
2018-12-08T12:01:10.292Z,939.37
2018-12-08T12:02:18.346Z,939.36
2018-12-08T12:03:26.500Z,939.37
2018-12-08T12:04:34.466Z,939.36
2018-12-08T12:05:44.438Z,939.36
2018-12-08T12:06:50.587Z,939.36
2018-12-08T12:07:58.634Z,939.34
2018-12-08T12:09:06.892Z,939.36
2018-12-08T12:10:14.755Z,939.33
2018-12-08T12:11:22.836Z,939.40
2018-12-08T12:12:30.970Z,939.31
2018-12-08T12:13:38.938Z,939.35
2018-12-08T12:14:47.230Z,939.28
2018-12-08T12:15:55.021Z,939.27
2018-12-08T12:17:03.195Z,939.31
2018-12-08T12:18:11.178Z,939.30
2018-12-08T12:19:19.238Z,939.23
2018-12-08T12:20:27.404Z,939.22
2018-12-08T12:21:35.334Z,939.25
2018-12-08T12:22:43.432Z,939.29
2018-12-08T12:23:51.477Z,939.28
2018-12-08T12:24:59.540Z,939.21
2018-12-08T12:26:07.690Z,939.21
2018-12-08T12:27:15.652Z,939.24
2018-12-08T12:28:23.762Z,939.19
2018-12-08T12:29:31.913Z,939.11
2018-12-08T12:30:39.825Z,939.15
2018-12-08T12:31:47.987Z,939.11
2018-12-08T12:32:56.079Z,939.06
2018-12-08T12:34:04.087Z,939.03
2018-12-08T12:35:12.055Z,939.06
2018-12-08T12:36:20.118Z,939.04
2018-12-08T12:37:28.279Z,939.13
2018-12-08T12:38:36.237Z,939.11
2018-12-08T12:39:44.289Z,939.14
2018-12-08T12:40:52.347Z,939.19
2018-12-08T12:42:00.448Z,939.12
2018-12-08T12:43:08.554Z,939.09
2018-12-08T12:44:16.532Z,939.09
2018-12-08T12:45:24.582Z,939.07
2018-12-08T12:46:32.648Z,939.08
2018-12-08T12:47:40.707Z,939.11
2018-12-08T12:48:48.864Z,939.14
2018-12-08T12:49:56.820Z,939.16
2018-12-08T12:51:04.860Z,939.01
2018-12-08T12:52:12.929Z,939.12
2018-12-08T12:53:21.101Z,939.14
2018-12-08T12:54:29.174Z,939.19
2018-12-08T12:55:37.110Z,939.13
2018-12-08T12:56:45.150Z,939.19
2018-12-08T12:57:53.246Z,939.14
2018-12-08T12:59:01.295Z,939.14
2018-12-08T13:00:09.448Z,939.06
2018-12-08T13:01:17.401Z,939.11
2018-12-08T13:02:25.472Z,939.07
2018-12-08T13:03:33.525Z,939.09
2018-12-08T13:04:41.618Z,939.01
2018-12-08T13:05:49.745Z,939.02
2018-12-08T13:06:57.739Z,939.04
2018-12-08T13:08:05.754Z,939.02
2018-12-08T13:09:13.916Z,939.05
2018-12-08T13:10:21.883Z,938.96
2018-12-08T13:11:30.050Z,938.94
2018-12-08T13:12:38.005Z,938.97
2018-12-08T13:13:46.168Z,938.89
2018-12-08T13:14:54.120Z,938.96
2018-12-08T13:16:02.173Z,938.97
2018-12-08T13:17:10.351Z,938.96
2018-12-08T13:18:18.306Z,938.93
2018-12-08T13:19:26.359Z,938.86
2018-12-08T13:20:34.434Z,938.88
2018-12-08T13:21:42.563Z,938.94
2018-12-08T13:22:50.643Z,938.86
2018-12-08T13:23:58.608Z,938.85
2018-12-08T13:25:06.746Z,938.92
2018-12-08T13:26:14.833Z,938.89
2018-12-08T13:27:22.769Z,938.92
2018-12-08T13:28:31.359Z,938.89
2018-12-08T13:29:38.999Z,938.82
2018-12-08T13:30:46.946Z,938.81
2018-12-08T13:31:54.998Z,938.83
2018-12-08T13:33:03.061Z,938.81
2018-12-08T13:34:11.219Z,938.77
2018-12-08T13:35:19.188Z,938.79
2018-12-08T13:36:27.253Z,938.80
2018-12-08T13:37:35.294Z,938.82
2018-12-08T13:38:43.370Z,938.82
2018-12-08T13:39:51.523Z,938.81
2018-12-08T13:40:59.502Z,938.84
2018-12-08T13:42:07.538Z,938.84
2018-12-08T13:43:15.589Z,938.84
2018-12-08T13:44:23.665Z,938.76
2018-12-08T13:45:31.726Z,938.85
2018-12-08T13:46:39.781Z,938.73
2018-12-08T13:47:47.846Z,938.77
2018-12-08T13:48:55.901Z,938.72
2018-12-08T13:50:04.045Z,938.69
2018-12-08T13:51:12.015Z,938.75
2018-12-08T13:52:20.083Z,938.79
2018-12-08T13:53:28.124Z,938.67
2018-12-08T13:54:36.198Z,938.73
2018-12-08T13:55:44.347Z,938.80
2018-12-08T13:56:52.313Z,938.77
2018-12-08T13:58:00.377Z,938.78
2018-12-08T13:59:08.421Z,938.84
2018-12-08T14:00:16.476Z,938.79
2018-12-08T14:01:24.639Z,938.87
2018-12-08T14:02:32.607Z,938.85
2018-12-08T14:03:40.670Z,938.80
2018-12-08T14:04:48.721Z,938.80
2018-12-08T14:05:56.847Z,938.84
2018-12-08T14:07:04.915Z,938.83
2018-12-08T14:08:12.899Z,938.87
2018-12-08T14:09:20.948Z,938.84
2018-12-08T14:10:29.055Z,938.84
2018-12-08T14:11:37.078Z,938.79
2018-12-08T14:12:45.222Z,938.77
2018-12-08T14:13:53.197Z,938.78
2018-12-08T14:15:01.465Z,938.76
2018-12-08T14:16:09.316Z,938.75
2018-12-08T14:17:17.379Z,938.85
2018-12-08T14:18:25.503Z,938.89
2018-12-08T14:19:33.497Z,938.81